createdAt,value
2018-05-09T08:44:18.355Z,99528.89
2018-05-09T08:46:43.956Z,99540.98
2018-05-09T08:49:09.783Z,99540.12
2018-05-09T08:51:35.336Z,99545.69
2018-05-09T08:54:01.125Z,99537.84
2018-05-09T08:56:26.939Z,99536.04
2018-05-09T08:58:52.553Z,99525.48
2018-05-09T09:01:18.177Z,99531.39
2018-05-09T09:03:43.913Z,99530.41
2018-05-09T09:06:09.558Z,99528.70
2018-05-09T09:08:35.141Z,99515.45
2018-05-09T09:11:01.001Z,99525.31
2018-05-09T09:13:26.688Z,99527.19
2018-05-09T09:15:52.394Z,99524.14
2018-05-09T09:18:18.225Z,99532.56
2018-05-09T09:20:43.815Z,99530.14
2018-05-09T09:23:09.373Z,99525.34
2018-05-09T09:25:35.160Z,99514.84
2018-05-09T09:28:00.779Z,99522.38
2018-05-09T09:30:26.347Z,99515.55
2018-05-09T09:32:52.099Z,99515.80
2018-05-09T09:35:17.846Z,99517.51
2018-05-09T09:37:43.461Z,99525.26
2018-05-09T09:40:09.106Z,99526.21
2018-05-09T09:42:34.841Z,99518.48
2018-05-09T09:45:00.517Z,99519.89
2018-05-09T09:47:26.077Z,99519.98
2018-05-09T09:49:51.821Z,99512.35
2018-05-09T09:52:17.477Z,99509.08
2018-05-09T09:54:43.063Z,99510.72
2018-05-09T09:57:08.830Z,99499.75
2018-05-09T09:59:34.404Z,99504.87
2018-05-09T10:02:00.025Z,99501.42
2018-05-09T10:04:26.054Z,99491.61
2018-05-09T10:06:51.633Z,99491.28
2018-05-09T10:09:17.179Z,99489.60
2018-05-09T10:11:42.996Z,99491.78
2018-05-09T10:14:08.625Z,99491.78
2018-05-09T10:16:34.240Z,99490.93
2018-05-09T10:19:00.151Z,99486.56
2018-05-09T10:21:25.761Z,99484.27
2018-05-09T10:23:51.331Z,99482.81
2018-05-09T10:26:17.155Z,99480.56
2018-05-09T10:28:42.809Z,99477.14
2018-05-09T10:31:08.389Z,99480.70
2018-05-09T10:33:34.123Z,99478.48
2018-05-09T10:35:59.707Z,99472.78
2018-05-09T10:38:25.582Z,99470.45
2018-05-09T10:40:51.411Z,99466.61
2018-05-09T10:43:16.991Z,99459.77
2018-05-09T10:45:42.612Z,99463.55
2018-05-09T10:48:08.456Z,99461.45
2018-05-09T10:50:34.020Z,99459.30
2018-05-09T10:52:59.653Z,99448.55
2018-05-09T10:55:25.674Z,99449.80
2018-05-09T10:57:51.306Z,99442.61
2018-05-09T11:00:16.871Z,99453.38
2018-05-09T11:02:42.597Z,99436.07
2018-05-09T11:05:08.227Z,99446.75
2018-05-09T11:07:33.728Z,99444.08
2018-05-09T11:09:59.525Z,99436.94
2018-05-09T11:12:25.156Z,99435.39
2018-05-09T11:14:50.741Z,99429.30
2018-05-09T11:17:16.506Z,99433.91
2018-05-09T11:19:42.052Z,99431.77
2018-05-09T11:22:07.866Z,99432.75
2018-05-09T11:24:33.594Z,99426.90
2018-05-09T11:26:59.164Z,99424.66
2018-05-09T11:29:24.728Z,99422.47
2018-05-09T11:31:50.528Z,99421.06
2018-05-09T11:34:16.136Z,99430.80
2018-05-09T11:36:41.688Z,99423.27
2018-05-09T11:39:07.500Z,99427.39
2018-05-09T11:41:33.126Z,99423.39
2018-05-09T11:43:58.684Z,99427.51
2018-05-09T11:46:24.416Z,99426.44
2018-05-09T11:48:50.006Z,99428.72
2018-05-09T11:51:15.643Z,99429.69
2018-05-09T11:53:41.402Z,99424.88
2018-05-09T11:56:06.966Z,99424.56
2018-05-09T11:58:32.532Z,99422.03
2018-05-09T12:00:59.359Z,99424.77
2018-05-09T12:03:25.125Z,99424.44
2018-05-09T12:05:50.818Z,99420.91
2018-05-09T12:08:16.518Z,99419.33
2018-05-09T12:10:42.256Z,99420.08
2018-05-09T12:13:07.665Z,99425.02
2018-05-09T12:15:33.539Z,99416.09
2018-05-09T12:17:59.135Z,99408.08
2018-05-09T12:20:24.693Z,99415.49
2018-05-09T12:22:50.475Z,99410.59
2018-05-09T12:25:16.079Z,99398.99
2018-05-09T12:27:41.841Z,99409.20
2018-05-09T12:30:07.461Z,99399.80
2018-05-09T12:32:33.049Z,99396.00
2018-05-09T12:34:58.888Z,99397.30
2018-05-09T12:37:24.457Z,99398.33
2018-05-09T12:39:50.023Z,99396.22
2018-05-09T12:42:15.796Z,99399.41
2018-05-09T12:44:41.388Z,99386.66
2018-05-09T12:47:06.940Z,99380.84
2018-05-09T12:49:32.739Z,99376.33
2018-05-09T12:51:58.376Z,99374.58
2018-05-09T12:54:24.020Z,99371.67
2018-05-09T12:56:49.812Z,99360.89
2018-05-09T12:59:15.589Z,99354.16
2018-05-09T13:01:41.203Z,99366.94
2018-05-09T13:04:06.999Z,99359.59
2018-05-09T13:06:32.571Z,99361.20
2018-05-09T13:08:58.161Z,99354.96
2018-05-09T13:11:23.881Z,99355.80
2018-05-09T13:13:49.620Z,99349.71
2018-05-09T13:16:15.287Z,99352.29
2018-05-09T13:18:40.841Z,99347.08
2018-05-09T13:21:06.594Z,99338.22
2018-05-09T13:23:32.445Z,99335.55
2018-05-09T13:25:58.121Z,99341.17
2018-05-09T13:28:23.615Z,99327.23
2018-05-09T13:30:49.477Z,99329.91
2018-05-09T13:33:15.446Z,99322.11
2018-05-09T13:35:41.062Z,99326.25
2018-05-09T13:38:06.848Z,99318.20
2018-05-09T13:40:32.475Z,99319.73
2018-05-09T13:42:58.216Z,99322.86
2018-05-09T13:45:24.033Z,99316.38
2018-05-09T13:47:49.621Z,99307.66
2018-05-09T13:50:15.181Z,99298.69
2018-05-09T13:52:40.947Z,99297.22
2018-05-09T13:55:06.519Z,99299.27
2018-05-09T13:57:32.145Z,99293.09
2018-05-09T13:59:57.940Z,99294.80
2018-05-09T14:02:23.562Z,99294.86
2018-05-09T14:04:49.221Z,99284.20
2018-05-09T14:07:15.027Z,99289.42
2018-05-09T14:09:40.653Z,99285.68
2018-05-09T14:12:06.554Z,99288.91
2018-05-09T14:14:32.569Z,99288.92
2018-05-09T14:16:58.218Z,99280.38
2018-05-09T14:19:23.795Z,99279.23
2018-05-09T14:21:49.594Z,99281.42
2018-05-09T14:24:15.176Z,99279.03
2018-05-09T14:26:40.941Z,99283.43
2018-05-09T14:29:06.506Z,99269.37
2018-05-09T14:31:32.152Z,99273.20
2018-05-09T14:36:30.185Z,99277.69
2018-05-09T14:38:55.777Z,99270.19
2018-05-09T14:41:21.412Z,99271.47
2018-05-09T14:43:47.144Z,99269.04
2018-05-09T14:46:12.772Z,99254.65
2018-05-09T14:48:38.374Z,99247.11
2018-05-09T14:51:04.220Z,99253.17
2018-05-09T14:53:30.010Z,99245.53
2018-05-09T14:55:55.645Z,99242.09
2018-05-09T14:58:21.595Z,99244.23
2018-05-09T15:00:47.458Z,99245.44
2018-05-09T15:03:13.009Z,99243.38
2018-05-09T15:05:38.653Z,99237.42
2018-05-09T15:08:04.391Z,99245.80
2018-05-09T15:10:30.045Z,99247.03
2018-05-09T15:12:55.589Z,99238.34
2018-05-09T15:15:21.710Z,99240.98
2018-05-09T15:17:47.271Z,99235.62
2018-05-09T15:20:12.869Z,99236.64
2018-05-09T15:22:38.677Z,99239.10
2018-05-09T15:25:04.239Z,99241.75
2018-05-09T15:27:29.837Z,99241.84
2018-05-09T15:29:55.672Z,99232.87
2018-05-09T15:32:21.226Z,99245.11
2018-05-09T15:34:46.787Z,99241.59
2018-05-09T15:37:12.490Z,99238.25
2018-05-09T15:39:38.087Z,99238.92
2018-05-09T15:42:03.709Z,99233.92
2018-05-09T15:44:29.490Z,99240.57
2018-05-09T15:46:55.058Z,99229.55
2018-05-09T15:49:20.621Z,99227.03
2018-05-09T15:51:46.410Z,99230.67
2018-05-09T15:54:12.108Z,99230.19
2018-05-09T15:56:37.678Z,99224.27
2018-05-09T15:59:03.473Z,99231.44
2018-05-09T16:01:29.111Z,99227.14
2018-05-09T16:03:54.724Z,99234.28
2018-05-09T16:06:20.562Z,99221.61
2018-05-09T16:08:46.124Z,99227.02
2018-05-09T16:11:11.687Z,99225.78
2018-05-09T16:13:37.556Z,99229.38
2018-05-09T16:16:03.388Z,99225.33
2018-05-09T16:18:28.995Z,99219.74
2018-05-09T16:20:54.561Z,99216.80
2018-05-09T16:23:20.411Z,99217.38
2018-05-09T16:25:46.138Z,99223.91
2018-05-09T16:28:11.710Z,99218.16
2018-05-09T16:30:37.264Z,99218.92
2018-05-09T16:33:03.033Z,99215.39
2018-05-09T16:35:28.658Z,99223.90
2018-05-09T16:37:54.204Z,99223.09
2018-05-09T16:40:20.351Z,99225.89
2018-05-09T16:42:45.991Z,99226.65
2018-05-09T16:45:11.582Z,99217.79
2018-05-09T16:47:37.591Z,99226.97
2018-05-09T16:50:03.227Z,99227.87
2018-05-09T16:52:28.841Z,99227.05
2018-05-09T16:54:54.590Z,99222.26
2018-05-09T16:57:20.462Z,99230.19
2018-05-09T16:59:46.032Z,99222.19
2018-05-09T17:02:11.613Z,99224.33
2018-05-09T17:04:37.607Z,99230.19
2018-05-09T17:07:03.210Z,99230.52
2018-05-09T17:09:28.952Z,99223.83
2018-05-09T17:11:54.682Z,99228.77
2018-05-09T17:14:20.249Z,99228.33
2018-05-09T17:16:45.957Z,99228.23
2018-05-09T17:19:11.579Z,99231.27
2018-05-09T17:22:27.251Z,99226.44
2018-05-09T17:24:52.982Z,99217.79
2018-05-09T17:27:18.660Z,99215.83
2018-05-09T17:29:44.227Z,99214.72
2018-05-09T17:32:09.833Z,99214.58
2018-05-09T17:34:35.645Z,99216.05
2018-05-09T17:37:01.259Z,99214.97
2018-05-09T17:39:26.884Z,99207.39
2018-05-09T17:41:52.627Z,99206.39
2018-05-09T17:44:18.237Z,99206.98
2018-05-09T17:46:43.808Z,99206.95
2018-05-09T17:49:09.622Z,99207.94
2018-05-09T17:51:35.232Z,99216.44
2018-05-09T17:54:00.798Z,99212.43
2018-05-09T17:56:26.672Z,99207.82
2018-05-09T17:58:52.515Z,99202.63
2018-05-09T18:01:18.083Z,99206.86
2018-05-09T18:03:43.805Z,99204.95
2018-05-09T18:06:09.442Z,99212.33
2018-05-09T18:08:35.091Z,99206.67
2018-05-09T18:11:00.885Z,99206.90
2018-05-09T18:13:26.513Z,99208.58
2018-05-09T18:15:52.126Z,99206.39
2018-05-09T18:18:18.189Z,99204.06
2018-05-09T18:20:43.811Z,99199.88
2018-05-09T18:23:09.387Z,99203.69
2018-05-09T18:25:35.237Z,99214.01
2018-05-09T18:28:00.876Z,99216.31
2018-05-09T18:30:26.508Z,99212.33
2018-05-09T18:32:52.286Z,99212.51
2018-05-09T18:35:17.911Z,99215.22
2018-05-09T18:37:43.524Z,99217.05
2018-05-09T18:40:09.323Z,99216.84
2018-05-09T18:42:34.827Z,99217.77
2018-05-09T18:45:00.482Z,99214.45
2018-05-09T18:47:26.236Z,99214.91
2018-05-09T18:49:51.782Z,99214.58
2018-05-09T18:52:17.353Z,99223.25
2018-05-09T18:54:43.146Z,99221.42
2018-05-09T18:57:08.722Z,99221.21
2018-05-09T18:59:34.587Z,99223.12
2018-05-09T19:02:00.163Z,99223.14
2018-05-09T19:04:25.787Z,99234.20
2018-05-09T19:06:52.648Z,99236.44
2018-05-09T19:09:18.261Z,99229.23
2018-05-09T19:11:44.272Z,99231.77
2018-05-09T19:14:11.027Z,99238.89
2018-05-09T19:16:39.306Z,99233.55
2018-05-09T19:19:04.909Z,99244.53
2018-05-09T19:21:31.046Z,99234.88
2018-05-09T19:23:56.653Z,99238.20
2018-05-09T19:26:22.477Z,99241.52
2018-05-09T19:28:48.409Z,99248.97
2018-05-09T19:31:14.171Z,99242.38
2018-05-09T19:33:39.970Z,99247.70
2018-05-09T19:36:05.599Z,99246.41
2018-05-09T19:38:31.250Z,99261.00
2018-05-09T19:40:56.984Z,99262.15
2018-05-09T19:43:22.574Z,99267.31
2018-05-09T19:45:48.684Z,99262.37
2018-05-09T19:48:14.432Z,99268.36
2018-05-09T19:50:40.115Z,99274.58
2018-05-09T19:53:05.643Z,99268.69
2018-05-09T19:55:31.446Z,99271.14
2018-05-09T19:57:57.073Z,99277.30
2018-05-09T20:00:22.668Z,99277.37
2018-05-09T20:02:48.837Z,99270.59
2018-05-09T20:05:14.467Z,99278.75
2018-05-09T20:07:40.041Z,99285.23
2018-05-09T20:10:05.894Z,99273.96
2018-05-09T20:12:31.484Z,99282.43
2018-05-09T20:14:57.145Z,99276.66
2018-05-09T20:17:22.992Z,99275.98
2018-05-09T20:19:48.557Z,99286.41
2018-05-09T20:22:14.260Z,99283.30
2018-05-09T20:24:39.994Z,99281.08
2018-05-09T20:27:05.945Z,99280.02
2018-05-09T20:29:31.607Z,99276.71
2018-05-09T20:35:04.042Z,99271.97
2018-05-09T20:37:29.941Z,99276.50
2018-05-09T20:39:55.513Z,99275.59
2018-05-09T20:42:21.106Z,99276.02
2018-05-09T20:44:46.822Z,99269.83
2018-05-09T20:47:12.529Z,99262.92
2018-05-09T20:49:38.170Z,99270.16
2018-05-09T20:52:03.983Z,99274.11
2018-05-09T20:54:29.855Z,99269.67
2018-05-09T20:56:55.473Z,99276.18
2018-05-09T20:59:21.549Z,99273.91
2018-05-09T21:01:47.170Z,99276.00
2018-05-09T21:04:12.741Z,99279.98
2018-05-09T21:06:38.657Z,99282.81
2018-05-09T21:09:04.430Z,99281.66
2018-05-09T21:11:31.381Z,99283.84
2018-05-09T21:13:56.961Z,99287.48
2018-05-09T21:16:22.753Z,99285.14
2018-05-09T21:18:48.337Z,99286.72
2018-05-09T21:21:14.290Z,99279.78
2018-05-09T21:23:40.189Z,99279.02
2018-05-09T21:26:05.793Z,99280.73
2018-05-09T21:28:31.657Z,99278.34
2018-05-09T21:30:57.261Z,99274.40
2018-05-09T21:33:23.064Z,99277.27
2018-05-09T21:35:48.954Z,99279.84
2018-05-09T21:38:14.549Z,99285.05
2018-05-09T21:40:40.146Z,99284.07
2018-05-09T21:43:05.902Z,99289.22
2018-05-09T21:45:31.566Z,99285.28
2018-05-09T21:47:57.257Z,99287.63
2018-05-09T21:50:23.056Z,99285.99
2018-05-09T21:52:48.639Z,99292.35
2018-05-09T21:55:14.191Z,99288.04
2018-05-09T21:57:39.976Z,99301.42
2018-05-09T22:00:05.534Z,99296.32
2018-05-09T22:02:31.168Z,99301.56
2018-05-09T22:04:56.945Z,99301.56
2018-05-09T22:07:22.509Z,99301.46
2018-05-09T22:09:48.221Z,99300.00
2018-05-09T22:12:13.834Z,99307.98
2018-05-09T22:14:39.469Z,99309.98
2018-05-09T22:17:05.304Z,99322.61
2018-05-09T22:19:32.024Z,99319.85
2018-05-09T22:21:58.210Z,99311.16
2018-05-09T22:24:24.020Z,99314.00
2018-05-09T22:26:49.873Z,99312.56
2018-05-09T22:29:15.532Z,99303.08
2018-05-09T22:31:41.254Z,99309.69
2018-05-09T22:34:06.871Z,99310.11
2018-05-09T22:36:32.605Z,99315.63
2018-05-09T22:38:58.920Z,99307.72
2018-05-09T22:41:24.491Z,99310.29
2018-05-09T22:43:50.056Z,99299.19
2018-05-09T22:46:16.143Z,99293.30
2018-05-09T22:48:41.763Z,99293.71
2018-05-09T22:51:07.371Z,99300.95
2018-05-09T22:53:33.492Z,99294.58
2018-05-09T22:55:59.074Z,99285.89
2018-05-09T22:58:24.685Z,99285.63
2018-05-09T23:00:50.501Z,99279.83
2018-05-09T23:03:16.215Z,99271.28
2018-05-09T23:05:42.428Z,99290.58
2018-05-09T23:08:08.199Z,99287.09
2018-05-09T23:10:34.000Z,99284.92
2018-05-09T23:12:59.640Z,99283.05
2018-05-09T23:15:25.576Z,99276.39
2018-05-09T23:17:51.117Z,99281.94
2018-05-09T23:20:16.848Z,99287.47
2018-05-09T23:22:42.759Z,99284.70
2018-05-09T23:25:08.329Z,99288.74
2018-05-09T23:27:34.443Z,99287.16
2018-05-09T23:30:00.088Z,99287.64
2018-05-09T23:32:25.646Z,99289.23
2018-05-09T23:34:51.412Z,99287.29
2018-05-09T23:37:17.031Z,99292.00
2018-05-09T23:39:42.606Z,99287.73
2018-05-09T23:42:08.448Z,99288.83
2018-05-09T23:44:34.026Z,99287.29
2018-05-09T23:46:59.725Z,99289.98
2018-05-09T23:49:25.485Z,99288.77
2018-05-09T23:51:51.334Z,99288.86
2018-05-09T23:54:16.891Z,99277.08
2018-05-09T23:56:42.523Z,99283.00
2018-05-09T23:59:08.291Z,99278.32
